sensor_id;sensor_type;location;lat;lon;timestamp;P1;durP1;ratioP1;P2;durP2;ratioP2
4420;SDS011;11824;51.178;13.546;2022-11-15T00:01:27;131.33;;;49.17;;
4420;SDS011;11824;51.178;13.546;2022-11-15T00:03:56;120.20;;;50.73;;
4420;SDS011;11824;51.178;13.546;2022-11-15T00:06:25;139.07;;;51.00;;
4420;SDS011;11824;51.178;13.546;2022-11-15T00:08:53;136.20;;;53.10;;
4420;SDS011;11824;51.178;13.546;2022-11-15T00:11:22;125.30;;;49.20;;
4420;SDS011;11824;51.178;13.546;2022-11-15T00:13:54;123.37;;;51.80;;
4420;SDS011;11824;51.178;13.546;2022-11-15T00:16:23;141.80;;;52.60;;
4420;SDS011;11824;51.178;13.546;2022-11-15T00:18:52;138.93;;;50.10;;
4420;SDS011;11824;51.178;13.546;2022-11-15T00:21:21;142.13;;;49.27;;
4420;SDS011;11824;51.178;13.546;2022-11-15T00:23:50;130.83;;;47.53;;
4420;SDS011;11824;51.178;13.546;2022-11-15T00:26:18;126.10;;;49.83;;
4420;SDS011;11824;51.178;13.546;2022-11-15T00:28:47;127.13;;;50.97;;
4420;SDS011;11824;51.178;13.546;2022-11-15T00:31:17;144.57;;;51.07;;
4420;SDS011;11824;51.178;13.546;2022-11-15T00:33:46;139.27;;;49.30;;
4420;SDS011;11824;51.178;13.546;2022-11-15T00:36:15;148.70;;;50.77;;
4420;SDS011;11824;51.178;13.546;2022-11-15T00:38:43;137.63;;;50.60;;
4420;SDS011;11824;51.178;13.546;2022-11-15T00:41:12;134.47;;;49.20;;
4420;SDS011;11824;51.178;13.546;2022-11-15T00:43:41;139.10;;;50.40;;
4420;SDS011;11824;51.178;13.546;2022-11-15T00:46:10;127.63;;;46.53;;
4420;SDS011;11824;51.178;13.546;2022-11-15T00:48:40;128.60;;;47.33;;
4420;SDS011;11824;51.178;13.546;2022-11-15T00:51:09;122.73;;;47.50;;
4420;SDS011;11824;51.178;13.546;2022-11-15T00:53:38;133.67;;;50.57;;
4420;SDS011;11824;51.178;13.546;2022-11-15T00:56:06;127.23;;;46.10;;
4420;SDS011;11824;51.178;13.546;2022-11-15T00:58:35;132.60;;;49.53;;
4420;SDS011;11824;51.178;13.546;2022-11-15T01:01:08;133.60;;;48.60;;
4420;SDS011;11824;51.178;13.546;2022-11-15T01:03:38;133.27;;;50.30;;
4420;SDS011;11824;51.178;13.546;2022-11-15T01:06:09;134.73;;;49.17;;
4420;SDS011;11824;51.178;13.546;2022-11-15T01:08:38;119.63;;;44.20;;
4420;SDS011;11824;51.178;13.546;2022-11-15T01:11:08;131.77;;;48.70;;
4420;SDS011;11824;51.178;13.546;2022-11-15T01:13:39;138.47;;;49.00;;
4420;SDS011;11824;51.178;13.546;2022-11-15T01:16:08;126.33;;;50.70;;
4420;SDS011;11824;51.178;13.546;2022-11-15T01:18:40;117.63;;;46.10;;
4420;SDS011;11824;51.178;13.546;2022-11-15T01:21:10;129.20;;;48.23;;
4420;SDS011;11824;51.178;13.546;2022-11-15T01:23:40;144.50;;;49.27;;
4420;SDS011;11824;51.178;13.546;2022-11-15T01:26:09;128.63;;;46.73;;
4420;SDS011;11824;51.178;13.546;2022-11-15T01:28:40;133.00;;;48.83;;
4420;SDS011;11824;51.178;13.546;2022-11-15T01:31:11;137.23;;;49.53;;
4420;SDS011;11824;51.178;13.546;2022-11-15T01:33:42;123.33;;;46.80;;
4420;SDS011;11824;51.178;13.546;2022-11-15T01:36:12;152.07;;;50.27;;
4420;SDS011;11824;51.178;13.546;2022-11-15T01:38:42;129.97;;;48.20;;
4420;SDS011;11824;51.178;13.546;2022-11-15T01:41:15;138.37;;;47.60;;
4420;SDS011;11824;51.178;13.546;2022-11-15T01:43:46;138.87;;;45.77;;
4420;SDS011;11824;51.178;13.546;2022-11-15T01:46:27;120.67;;;47.17;;
4420;SDS011;11824;51.178;13.546;2022-11-15T01:49:00;135.53;;;48.47;;
4420;SDS011;11824;51.178;13.546;2022-11-15T01:51:33;127.53;;;46.77;;
4420;SDS011;11824;51.178;13.546;2022-11-15T01:54:02;143.33;;;46.83;;
4420;SDS011;11824;51.178;13.546;2022-11-15T01:56:36;128.80;;;46.47;;
4420;SDS011;11824;51.178;13.546;2022-11-15T01:59:08;126.87;;;43.50;;
4420;SDS011;11824;51.178;13.546;2022-11-15T02:01:39;109.10;;;43.37;;
4420;SDS011;11824;51.178;13.546;2022-11-15T02:04:10;134.93;;;45.07;;
4420;SDS011;11824;51.178;13.546;2022-11-15T02:06:41;120.23;;;44.70;;
4420;SDS011;11824;51.178;13.546;2022-11-15T02:09:12;128.07;;;44.77;;
4420;SDS011;11824;51.178;13.546;2022-11-15T02:11:41;107.77;;;42.27;;
4420;SDS011;11824;51.178;13.546;2022-11-15T02:14:11;113.53;;;39.70;;
4420;SDS011;11824;51.178;13.546;2022-11-15T02:16:43;130.73;;;43.80;;
4420;SDS011;11824;51.178;13.546;2022-11-15T02:19:27;125.63;;;42.97;;
4420;SDS011;11824;51.178;13.546;2022-11-15T02:22:10;156.53;;;46.60;;
4420;SDS011;11824;51.178;13.546;2022-11-15T02:24:58;152.23;;;48.33;;
4420;SDS011;11824;51.178;13.546;2022-11-15T02:30:40;153.40;;;50.80;;
4420;SDS011;11824;51.178;13.546;2022-11-15T02:33:14;154.57;;;50.20;;
4420;SDS011;11824;51.178;13.546;2022-11-15T02:35:57;187.57;;;52.50;;
4420;SDS011;11824;51.178;13.546;2022-11-15T02:38:29;136.50;;;48.90;;
4420;SDS011;11824;51.178;13.546;2022-11-15T02:41:04;164.20;;;50.90;;
4420;SDS011;11824;51.178;13.546;2022-11-15T02:43:45;164.70;;;51.27;;
4420;SDS011;11824;51.178;13.546;2022-11-15T02:46:26;149.17;;;48.80;;
4420;SDS011;11824;51.178;13.546;2022-11-15T02:49:18;163.63;;;47.67;;
4420;SDS011;11824;51.178;13.546;2022-11-15T02:51:47;151.20;;;49.30;;
4420;SDS011;11824;51.178;13.546;2022-11-15T02:54:20;167.47;;;52.30;;
4420;SDS011;11824;51.178;13.546;2022-11-15T02:56:51;145.40;;;49.13;;
4420;SDS011;11824;51.178;13.546;2022-11-15T02:59:36;166.27;;;48.57;;
4420;SDS011;11824;51.178;13.546;2022-11-15T03:02:20;158.33;;;50.07;;
4420;SDS011;11824;51.178;13.546;2022-11-15T03:04:59;170.73;;;52.30;;
4420;SDS011;11824;51.178;13.546;2022-11-15T03:07:38;178.60;;;53.27;;
4420;SDS011;11824;51.178;13.546;2022-11-15T03:10:12;183.67;;;51.87;;
4420;SDS011;11824;51.178;13.546;2022-11-15T03:12:48;189.17;;;54.07;;
4420;SDS011;11824;51.178;13.546;2022-11-15T03:15:21;227.53;;;55.87;;
4420;SDS011;11824;51.178;13.546;2022-11-15T03:17:58;206.20;;;55.10;;
4420;SDS011;11824;51.178;13.546;2022-11-15T03:20:29;203.20;;;55.40;;
4420;SDS011;11824;51.178;13.546;2022-11-15T03:23:00;202.67;;;55.10;;
4420;SDS011;11824;51.178;13.546;2022-11-15T03:25:31;228.90;;;59.67;;
4420;SDS011;11824;51.178;13.546;2022-11-15T03:28:04;218.77;;;58.87;;
4420;SDS011;11824;51.178;13.546;2022-11-15T03:30:36;199.30;;;54.93;;
4420;SDS011;11824;51.178;13.546;2022-11-15T03:33:08;205.03;;;56.50;;
4420;SDS011;11824;51.178;13.546;2022-11-15T03:35:39;212.10;;;56.47;;
4420;SDS011;11824;51.178;13.546;2022-11-15T03:38:11;218.27;;;55.33;;
4420;SDS011;11824;51.178;13.546;2022-11-15T03:40:45;228.10;;;67.07;;
4420;SDS011;11824;51.178;13.546;2022-11-15T03:43:22;225.33;;;60.47;;
4420;SDS011;11824;51.178;13.546;2022-11-15T03:45:58;212.73;;;61.90;;
4420;SDS011;11824;51.178;13.546;2022-11-15T03:48:33;223.13;;;58.70;;
4420;SDS011;11824;51.178;13.546;2022-11-15T03:51:04;198.87;;;54.33;;
4420;SDS011;11824;51.178;13.546;2022-11-15T03:53:33;231.00;;;55.30;;
4420;SDS011;11824;51.178;13.546;2022-11-15T03:56:02;216.57;;;58.10;;
4420;SDS011;11824;51.178;13.546;2022-11-15T03:58:31;197.47;;;54.57;;
4420;SDS011;11824;51.178;13.546;2022-11-15T04:01:00;200.07;;;54.87;;
4420;SDS011;11824;51.178;13.546;2022-11-15T04:03:30;188.33;;;49.00;;
4420;SDS011;11824;51.178;13.546;2022-11-15T04:05:59;169.87;;;48.93;;
4420;SDS011;11824;51.178;13.546;2022-11-15T04:08:28;139.37;;;46.00;;
4420;SDS011;11824;51.178;13.546;2022-11-15T04:10:57;136.57;;;43.33;;
4420;SDS011;11824;51.178;13.546;2022-11-15T04:13:27;155.60;;;46.47;;
4420;SDS011;11824;51.178;13.546;2022-11-15T04:15:57;156.33;;;46.80;;
4420;SDS011;11824;51.178;13.546;2022-11-15T04:18:25;161.07;;;48.30;;
4420;SDS011;11824;51.178;13.546;2022-11-15T04:20:55;173.13;;;50.20;;
4420;SDS011;11824;51.178;13.546;2022-11-15T04:23:42;180.37;;;50.37;;
4420;SDS011;11824;51.178;13.546;2022-11-15T04:26:27;162.53;;;50.60;;
4420;SDS011;11824;51.178;13.546;2022-11-15T04:28:56;187.70;;;52.30;;
4420;SDS011;11824;51.178;13.546;2022-11-15T04:31:41;177.27;;;48.00;;
4420;SDS011;11824;51.178;13.546;2022-11-15T04:34:10;178.87;;;50.17;;
4420;SDS011;11824;51.178;13.546;2022-11-15T04:36:40;172.13;;;52.47;;
4420;SDS011;11824;51.178;13.546;2022-11-15T04:39:26;167.83;;;48.47;;
4420;SDS011;11824;51.178;13.546;2022-11-15T04:41:55;161.73;;;48.40;;
4420;SDS011;11824;51.178;13.546;2022-11-15T04:44:24;171.03;;;48.47;;
4420;SDS011;11824;51.178;13.546;2022-11-15T04:46:52;188.93;;;51.03;;
4420;SDS011;11824;51.178;13.546;2022-11-15T04:49:21;197.33;;;51.90;;
4420;SDS011;11824;51.178;13.546;2022-11-15T04:51:51;209.27;;;54.10;;
4420;SDS011;11824;51.178;13.546;2022-11-15T04:54:20;229.33;;;54.57;;
4420;SDS011;11824;51.178;13.546;2022-11-15T04:56:49;223.23;;;54.90;;
4420;SDS011;11824;51.178;13.546;2022-11-15T04:59:18;202.70;;;51.73;;
4420;SDS011;11824;51.178;13.546;2022-11-15T05:01:46;175.27;;;50.30;;
4420;SDS011;11824;51.178;13.546;2022-11-15T05:04:15;191.50;;;50.70;;
4420;SDS011;11824;51.178;13.546;2022-11-15T05:06:46;222.90;;;56.43;;
4420;SDS011;11824;51.178;13.546;2022-11-15T05:09:18;219.40;;;55.20;;
4420;SDS011;11824;51.178;13.546;2022-11-15T05:11:48;215.50;;;55.40;;
4420;SDS011;11824;51.178;13.546;2022-11-15T05:14:16;174.30;;;47.73;;
4420;SDS011;11824;51.178;13.546;2022-11-15T05:16:45;160.27;;;44.97;;
4420;SDS011;11824;51.178;13.546;2022-11-15T05:19:14;133.93;;;44.17;;
4420;SDS011;11824;51.178;13.546;2022-11-15T05:21:43;148.23;;;44.97;;
4420;SDS011;11824;51.178;13.546;2022-11-15T05:24:12;155.53;;;43.37;;
4420;SDS011;11824;51.178;13.546;2022-11-15T05:26:42;161.70;;;44.97;;
4420;SDS011;11824;51.178;13.546;2022-11-15T05:29:10;164.30;;;49.67;;
4420;SDS011;11824;51.178;13.546;2022-11-15T05:31:39;167.63;;;48.73;;
4420;SDS011;11824;51.178;13.546;2022-11-15T05:34:09;158.73;;;45.90;;
4420;SDS011;11824;51.178;13.546;2022-11-15T05:36:38;141.27;;;44.97;;
4420;SDS011;11824;51.178;13.546;2022-11-15T05:39:11;142.13;;;41.87;;
4420;SDS011;11824;51.178;13.546;2022-11-15T05:41:40;132.67;;;43.37;;
4420;SDS011;11824;51.178;13.546;2022-11-15T05:44:15;143.67;;;43.97;;
4420;SDS011;11824;51.178;13.546;2022-11-15T05:46:47;137.40;;;44.60;;
4420;SDS011;11824;51.178;13.546;2022-11-15T05:49:20;167.70;;;46.87;;
4420;SDS011;11824;51.178;13.546;2022-11-15T05:51:52;139.57;;;43.03;;
4420;SDS011;11824;51.178;13.546;2022-11-15T05:54:21;130.00;;;41.37;;
4420;SDS011;11824;51.178;13.546;2022-11-15T05:56:53;125.43;;;40.30;;
4420;SDS011;11824;51.178;13.546;2022-11-15T05:59:22;148.37;;;41.47;;
4420;SDS011;11824;51.178;13.546;2022-11-15T06:01:51;89.40;;;36.43;;
4420;SDS011;11824;51.178;13.546;2022-11-15T06:04:20;107.83;;;37.43;;
4420;SDS011;11824;51.178;13.546;2022-11-15T06:06:49;103.03;;;38.37;;
4420;SDS011;11824;51.178;13.546;2022-11-15T06:09:18;119.10;;;38.50;;
4420;SDS011;11824;51.178;13.546;2022-11-15T06:11:50;116.07;;;37.87;;
4420;SDS011;11824;51.178;13.546;2022-11-15T06:14:20;125.70;;;36.80;;
4420;SDS011;11824;51.178;13.546;2022-11-15T06:16:50;132.57;;;42.47;;
4420;SDS011;11824;51.178;13.546;2022-11-15T06:19:18;119.83;;;40.27;;
4420;SDS011;11824;51.178;13.546;2022-11-15T06:21:47;141.50;;;41.60;;
4420;SDS011;11824;51.178;13.546;2022-11-15T06:24:16;155.33;;;49.20;;
4420;SDS011;11824;51.178;13.546;2022-11-15T06:26:45;168.90;;;46.10;;
4420;SDS011;11824;51.178;13.546;2022-11-15T06:29:14;158.63;;;44.60;;
4420;SDS011;11824;51.178;13.546;2022-11-15T06:31:44;175.30;;;49.47;;
4420;SDS011;11824;51.178;13.546;2022-11-15T06:34:13;166.50;;;47.97;;
4420;SDS011;11824;51.178;13.546;2022-11-15T06:36:42;143.20;;;44.63;;
4420;SDS011;11824;51.178;13.546;2022-11-15T06:39:11;137.87;;;44.07;;
4420;SDS011;11824;51.178;13.546;2022-11-15T06:41:39;153.33;;;48.10;;
4420;SDS011;11824;51.178;13.546;2022-11-15T06:44:08;137.80;;;48.00;;
4420;SDS011;11824;51.178;13.546;2022-11-15T06:46:37;163.33;;;47.77;;
4420;SDS011;11824;51.178;13.546;2022-11-15T06:49:07;139.30;;;46.57;;
4420;SDS011;11824;51.178;13.546;2022-11-15T06:51:35;133.10;;;46.67;;
4420;SDS011;11824;51.178;13.546;2022-11-15T06:54:04;158.60;;;48.90;;
4420;SDS011;11824;51.178;13.546;2022-11-15T06:56:33;189.40;;;51.33;;
4420;SDS011;11824;51.178;13.546;2022-11-15T06:59:02;164.77;;;49.47;;
4420;SDS011;11824;51.178;13.546;2022-11-15T07:01:30;198.50;;;51.60;;
4420;SDS011;11824;51.178;13.546;2022-11-15T07:03:59;177.27;;;51.97;;
4420;SDS011;11824;51.178;13.546;2022-11-15T07:06:29;168.67;;;49.87;;
4420;SDS011;11824;51.178;13.546;2022-11-15T07:08:58;170.73;;;53.20;;
4420;SDS011;11824;51.178;13.546;2022-11-15T07:11:29;194.17;;;57.10;;
4420;SDS011;11824;51.178;13.546;2022-11-15T07:13:57;179.83;;;56.67;;
4420;SDS011;11824;51.178;13.546;2022-11-15T07:16:27;177.30;;;55.27;;
4420;SDS011;11824;51.178;13.546;2022-11-15T07:18:55;174.80;;;52.93;;
4420;SDS011;11824;51.178;13.546;2022-11-15T07:21:24;192.07;;;57.87;;
4420;SDS011;11824;51.178;13.546;2022-11-15T07:23:54;179.83;;;53.00;;
4420;SDS011;11824;51.178;13.546;2022-11-15T07:26:23;180.77;;;51.80;;
4420;SDS011;11824;51.178;13.546;2022-11-15T07:28:52;174.40;;;52.07;;
4420;SDS011;11824;51.178;13.546;2022-11-15T07:31:21;188.57;;;54.60;;
4420;SDS011;11824;51.178;13.546;2022-11-15T07:33:49;175.07;;;51.90;;
4420;SDS011;11824;51.178;13.546;2022-11-15T07:36:18;160.63;;;49.27;;
4420;SDS011;11824;51.178;13.546;2022-11-15T07:38:47;174.47;;;51.20;;
4420;SDS011;11824;51.178;13.546;2022-11-15T07:41:17;180.10;;;53.67;;
4420;SDS011;11824;51.178;13.546;2022-11-15T07:43:46;183.50;;;53.90;;
4420;SDS011;11824;51.178;13.546;2022-11-15T07:46:18;179.53;;;55.07;;
4420;SDS011;11824;51.178;13.546;2022-11-15T07:48:47;196.33;;;53.50;;
4420;SDS011;11824;51.178;13.546;2022-11-15T07:51:16;179.80;;;52.23;;
4420;SDS011;11824;51.178;13.546;2022-11-15T07:53:45;189.50;;;57.77;;
4420;SDS011;11824;51.178;13.546;2022-11-15T07:56:13;212.73;;;56.47;;
4420;SDS011;11824;51.178;13.546;2022-11-15T07:58:43;172.10;;;53.50;;
4420;SDS011;11824;51.178;13.546;2022-11-15T08:01:13;191.63;;;55.13;;
4420;SDS011;11824;51.178;13.546;2022-11-15T08:03:42;191.13;;;55.77;;
4420;SDS011;11824;51.178;13.546;2022-11-15T08:06:11;179.00;;;54.97;;
4420;SDS011;11824;51.178;13.546;2022-11-15T08:08:39;171.70;;;56.10;;
4420;SDS011;11824;51.178;13.546;2022-11-15T08:11:08;164.37;;;50.43;;
4420;SDS011;11824;51.178;13.546;2022-11-15T08:13:37;165.60;;;51.67;;
4420;SDS011;11824;51.178;13.546;2022-11-15T08:16:07;149.30;;;50.60;;
4420;SDS011;11824;51.178;13.546;2022-11-15T08:18:38;141.93;;;49.80;;
4420;SDS011;11824;51.178;13.546;2022-11-15T08:21:08;164.00;;;54.20;;
4420;SDS011;11824;51.178;13.546;2022-11-15T08:23:43;151.03;;;49.23;;
4420;SDS011;11824;51.178;13.546;2022-11-15T08:26:12;155.17;;;49.30;;
4420;SDS011;11824;51.178;13.546;2022-11-15T08:28:41;138.23;;;47.27;;
4420;SDS011;11824;51.178;13.546;2022-11-15T08:31:13;131.03;;;45.60;;
4420;SDS011;11824;51.178;13.546;2022-11-15T08:33:44;125.17;;;46.90;;
4420;SDS011;11824;51.178;13.546;2022-11-15T08:36:13;120.53;;;43.30;;
4420;SDS011;11824;51.178;13.546;2022-11-15T08:38:43;125.47;;;44.27;;
4420;SDS011;11824;51.178;13.546;2022-11-15T08:41:19;113.93;;;42.53;;
4420;SDS011;11824;51.178;13.546;2022-11-15T08:43:53;106.80;;;41.80;;
4420;SDS011;11824;51.178;13.546;2022-11-15T08:46:23;96.03;;;38.97;;
4420;SDS011;11824;51.178;13.546;2022-11-15T08:48:52;96.50;;;40.73;;
4420;SDS011;11824;51.178;13.546;2022-11-15T08:51:21;98.30;;;40.13;;
4420;SDS011;11824;51.178;13.546;2022-11-15T08:53:49;89.47;;;36.07;;
4420;SDS011;11824;51.178;13.546;2022-11-15T08:56:18;79.87;;;36.40;;
4420;SDS011;11824;51.178;13.546;2022-11-15T08:58:47;93.77;;;37.37;;
4420;SDS011;11824;51.178;13.546;2022-11-15T09:01:16;89.10;;;36.10;;
4420;SDS011;11824;51.178;13.546;2022-11-15T09:03:48;90.87;;;36.57;;
4420;SDS011;11824;51.178;13.546;2022-11-15T09:06:17;89.47;;;36.77;;
4420;SDS011;11824;51.178;13.546;2022-11-15T09:08:46;74.10;;;35.47;;
4420;SDS011;11824;51.178;13.546;2022-11-15T09:11:14;83.17;;;36.60;;
4420;SDS011;11824;51.178;13.546;2022-11-15T09:13:46;81.30;;;37.00;;
4420;SDS011;11824;51.178;13.546;2022-11-15T09:16:15;75.77;;;31.57;;
4420;SDS011;11824;51.178;13.546;2022-11-15T09:18:43;69.50;;;34.60;;
4420;SDS011;11824;51.178;13.546;2022-11-15T09:21:14;75.20;;;35.33;;
4420;SDS011;11824;51.178;13.546;2022-11-15T09:23:42;70.63;;;33.63;;
4420;SDS011;11824;51.178;13.546;2022-11-15T09:26:11;67.63;;;31.90;;
4420;SDS011;11824;51.178;13.546;2022-11-15T09:28:40;64.00;;;29.90;;
4420;SDS011;11824;51.178;13.546;2022-11-15T09:31:09;61.47;;;28.63;;
4420;SDS011;11824;51.178;13.546;2022-11-15T09:33:40;55.80;;;29.63;;
4420;SDS011;11824;51.178;13.546;2022-11-15T09:36:12;60.40;;;32.47;;
4420;SDS011;11824;51.178;13.546;2022-11-15T09:38:43;62.43;;;30.20;;
4420;SDS011;11824;51.178;13.546;2022-11-15T09:41:27;52.50;;;27.93;;
4420;SDS011;11824;51.178;13.546;2022-11-15T09:44:23;57.13;;;27.77;;
4420;SDS011;11824;51.178;13.546;2022-11-15T09:47:05;60.17;;;28.10;;
4420;SDS011;11824;51.178;13.546;2022-11-15T09:49:51;59.20;;;27.50;;
4420;SDS011;11824;51.178;13.546;2022-11-15T09:52:24;50.70;;;27.07;;
4420;SDS011;11824;51.178;13.546;2022-11-15T09:54:53;52.07;;;25.10;;
4420;SDS011;11824;51.178;13.546;2022-11-15T09:57:24;41.63;;;24.10;;
4420;SDS011;11824;51.178;13.546;2022-11-15T10:00:02;40.90;;;20.87;;
4420;SDS011;11824;51.178;13.546;2022-11-15T10:03:00;41.50;;;22.90;;
4420;SDS011;11824;51.178;13.546;2022-11-15T10:05:40;45.23;;;24.57;;
4420;SDS011;11824;51.178;13.546;2022-11-15T10:08:20;45.87;;;22.70;;
4420;SDS011;11824;51.178;13.546;2022-11-15T10:11:00;41.10;;;24.17;;
4420;SDS011;11824;51.178;13.546;2022-11-15T10:13:51;45.20;;;23.57;;
4420;SDS011;11824;51.178;13.546;2022-11-15T10:16:44;42.00;;;22.77;;
4420;SDS011;11824;51.178;13.546;2022-11-15T10:19:35;43.23;;;22.20;;
4420;SDS011;11824;51.178;13.546;2022-11-15T10:22:15;37.90;;;21.80;;
4420;SDS011;11824;51.178;13.546;2022-11-15T10:24:58;40.43;;;21.90;;
4420;SDS011;11824;51.178;13.546;2022-11-15T10:27:40;42.83;;;22.10;;
4420;SDS011;11824;51.178;13.546;2022-11-15T10:30:11;36.00;;;20.97;;
4420;SDS011;11824;51.178;13.546;2022-11-15T10:32:43;40.23;;;22.60;;
4420;SDS011;11824;51.178;13.546;2022-11-15T10:35:21;37.50;;;20.13;;
4420;SDS011;11824;51.178;13.546;2022-11-15T10:37:52;39.10;;;22.27;;
4420;SDS011;11824;51.178;13.546;2022-11-15T10:40:35;43.27;;;23.13;;
4420;SDS011;11824;51.178;13.546;2022-11-15T10:43:05;39.33;;;21.70;;
4420;SDS011;11824;51.178;13.546;2022-11-15T10:45:41;38.57;;;21.83;;
4420;SDS011;11824;51.178;13.546;2022-11-15T10:48:20;41.43;;;22.70;;
4420;SDS011;11824;51.178;13.546;2022-11-15T10:50:52;43.10;;;23.53;;
4420;SDS011;11824;51.178;13.546;2022-11-15T10:53:30;46.77;;;23.90;;
4420;SDS011;11824;51.178;13.546;2022-11-15T10:56:05;37.40;;;21.93;;
4420;SDS011;11824;51.178;13.546;2022-11-15T10:58:37;39.00;;;22.07;;
4420;SDS011;11824;51.178;13.546;2022-11-15T11:01:14;41.40;;;22.03;;
4420;SDS011;11824;51.178;13.546;2022-11-15T11:03:45;39.27;;;20.83;;
4420;SDS011;11824;51.178;13.546;2022-11-15T11:06:26;35.40;;;21.47;;
4420;SDS011;11824;51.178;13.546;2022-11-15T11:08:56;43.30;;;20.53;;
4420;SDS011;11824;51.178;13.546;2022-11-15T11:11:43;33.07;;;20.37;;
4420;SDS011;11824;51.178;13.546;2022-11-15T11:14:13;37.67;;;18.90;;
4420;SDS011;11824;51.178;13.546;2022-11-15T11:16:49;31.23;;;17.80;;
4420;SDS011;11824;51.178;13.546;2022-11-15T11:19:31;32.40;;;17.97;;
4420;SDS011;11824;51.178;13.546;2022-11-15T11:22:06;34.33;;;16.27;;
4420;SDS011;11824;51.178;13.546;2022-11-15T11:24:44;27.10;;;15.60;;
4420;SDS011;11824;51.178;13.546;2022-11-15T11:27:26;33.40;;;19.53;;
4420;SDS011;11824;51.178;13.546;2022-11-15T11:30:10;30.80;;;16.90;;
4420;SDS011;11824;51.178;13.546;2022-11-15T11:32:49;27.87;;;16.27;;
4420;SDS011;11824;51.178;13.546;2022-11-15T11:35:34;29.47;;;15.80;;
4420;SDS011;11824;51.178;13.546;2022-11-15T11:38:17;29.03;;;15.00;;
4420;SDS011;11824;51.178;13.546;2022-11-15T11:41:08;26.17;;;14.50;;
4420;SDS011;11824;51.178;13.546;2022-11-15T11:43:48;24.93;;;15.43;;
4420;SDS011;11824;51.178;13.546;2022-11-15T11:46:30;22.67;;;14.90;;
4420;SDS011;11824;51.178;13.546;2022-11-15T11:49:16;30.53;;;17.10;;
4420;SDS011;11824;51.178;13.546;2022-11-15T11:51:49;27.87;;;14.93;;
4420;SDS011;11824;51.178;13.546;2022-11-15T11:54:22;24.37;;;15.23;;
4420;SDS011;11824;51.178;13.546;2022-11-15T11:56:59;27.40;;;15.10;;
4420;SDS011;11824;51.178;13.546;2022-11-15T11:59:36;26.97;;;14.33;;
4420;SDS011;11824;51.178;13.546;2022-11-15T12:02:12;24.10;;;14.43;;
4420;SDS011;11824;51.178;13.546;2022-11-15T12:04:47;22.67;;;14.60;;
4420;SDS011;11824;51.178;13.546;2022-11-15T12:07:20;28.67;;;16.00;;
4420;SDS011;11824;51.178;13.546;2022-11-15T12:09:53;29.40;;;16.57;;
4420;SDS011;11824;51.178;13.546;2022-11-15T12:12:28;34.07;;;16.60;;
4420;SDS011;11824;51.178;13.546;2022-11-15T12:15:04;27.10;;;16.20;;
4420;SDS011;11824;51.178;13.546;2022-11-15T12:17:40;24.93;;;15.73;;
4420;SDS011;11824;51.178;13.546;2022-11-15T12:20:14;26.70;;;15.37;;
4420;SDS011;11824;51.178;13.546;2022-11-15T12:22:46;30.87;;;15.47;;
4420;SDS011;11824;51.178;13.546;2022-11-15T12:25:21;33.20;;;15.57;;
4420;SDS011;11824;51.178;13.546;2022-11-15T12:27:53;32.27;;;17.50;;
4420;SDS011;11824;51.178;13.546;2022-11-15T12:30:27;29.83;;;15.80;;
4420;SDS011;11824;51.178;13.546;2022-11-15T12:33:13;26.60;;;15.10;;
4420;SDS011;11824;51.178;13.546;2022-11-15T12:36:02;26.60;;;14.70;;
4420;SDS011;11824;51.178;13.546;2022-11-15T12:41:24;21.33;;;14.40;;
4420;SDS011;11824;51.178;13.546;2022-11-15T12:43:54;24.70;;;14.60;;
4420;SDS011;11824;51.178;13.546;2022-11-15T12:49:43;24.60;;;13.80;;
4420;SDS011;11824;51.178;13.546;2022-11-15T12:52:13;31.07;;;14.50;;
4420;SDS011;11824;51.178;13.546;2022-11-15T12:55:02;25.10;;;15.13;;
4420;SDS011;11824;51.178;13.546;2022-11-15T12:57:45;25.73;;;15.57;;
4420;SDS011;11824;51.178;13.546;2022-11-15T13:03:21;28.20;;;15.00;;
4420;SDS011;11824;51.178;13.546;2022-11-15T13:06:01;25.40;;;15.63;;
4420;SDS011;11824;51.178;13.546;2022-11-15T13:08:36;24.67;;;14.50;;
4420;SDS011;11824;51.178;13.546;2022-11-15T13:17:17;25.73;;;15.90;;
4420;SDS011;11824;51.178;13.546;2022-11-15T13:20:24;28.10;;;14.20;;
4420;SDS011;11824;51.178;13.546;2022-11-15T13:23:00;25.30;;;15.43;;
4420;SDS011;11824;51.178;13.546;2022-11-15T13:28:42;25.33;;;14.77;;
4420;SDS011;11824;51.178;13.546;2022-11-15T13:31:25;22.00;;;15.03;;
4420;SDS011;11824;51.178;13.546;2022-11-15T13:33:57;23.60;;;15.77;;
4420;SDS011;11824;51.178;13.546;2022-11-15T13:36:50;23.00;;;14.87;;
4420;SDS011;11824;51.178;13.546;2022-11-15T13:39:26;29.40;;;16.37;;
4420;SDS011;11824;51.178;13.546;2022-11-15T13:41:56;26.70;;;14.03;;
4420;SDS011;11824;51.178;13.546;2022-11-15T13:44:26;26.63;;;15.83;;
4420;SDS011;11824;51.178;13.546;2022-11-15T13:47:02;27.27;;;16.30;;
4420;SDS011;11824;51.178;13.546;2022-11-15T13:49:33;29.77;;;15.70;;
4420;SDS011;11824;51.178;13.546;2022-11-15T13:52:06;29.77;;;15.80;;
4420;SDS011;11824;51.178;13.546;2022-11-15T13:54:39;34.43;;;18.77;;
4420;SDS011;11824;51.178;13.546;2022-11-15T13:57:14;46.37;;;16.90;;
4420;SDS011;11824;51.178;13.546;2022-11-15T13:59:46;21.27;;;15.00;;
4420;SDS011;11824;51.178;13.546;2022-11-15T14:02:18;30.97;;;17.73;;
4420;SDS011;11824;51.178;13.546;2022-11-15T14:04:49;27.07;;;16.53;;
4420;SDS011;11824;51.178;13.546;2022-11-15T14:07:23;27.73;;;16.13;;
4420;SDS011;11824;51.178;13.546;2022-11-15T14:09:54;28.50;;;15.87;;
4420;SDS011;11824;51.178;13.546;2022-11-15T14:12:26;33.57;;;18.27;;
4420;SDS011;11824;51.178;13.546;2022-11-15T14:14:57;35.20;;;17.00;;
4420;SDS011;11824;51.178;13.546;2022-11-15T14:17:33;31.50;;;17.43;;
4420;SDS011;11824;51.178;13.546;2022-11-15T14:20:19;32.47;;;18.93;;
4420;SDS011;11824;51.178;13.546;2022-11-15T14:23:04;32.97;;;18.40;;
4420;SDS011;11824;51.178;13.546;2022-11-15T14:25:51;35.17;;;17.93;;
4420;SDS011;11824;51.178;13.546;2022-11-15T14:28:30;31.10;;;19.30;;
4420;SDS011;11824;51.178;13.546;2022-11-15T14:31:04;34.93;;;19.03;;
4420;SDS011;11824;51.178;13.546;2022-11-15T14:33:39;34.90;;;18.83;;
4420;SDS011;11824;51.178;13.546;2022-11-15T14:36:11;35.90;;;18.70;;
4420;SDS011;11824;51.178;13.546;2022-11-15T14:38:42;31.23;;;17.83;;
4420;SDS011;11824;51.178;13.546;2022-11-15T14:41:17;32.37;;;19.47;;
4420;SDS011;11824;51.178;13.546;2022-11-15T14:43:47;31.90;;;17.10;;
4420;SDS011;11824;51.178;13.546;2022-11-15T14:46:17;33.80;;;18.30;;
4420;SDS011;11824;51.178;13.546;2022-11-15T14:48:45;30.90;;;17.30;;
4420;SDS011;11824;51.178;13.546;2022-11-15T14:51:15;34.80;;;18.80;;
4420;SDS011;11824;51.178;13.546;2022-11-15T14:53:46;34.50;;;18.73;;
4420;SDS011;11824;51.178;13.546;2022-11-15T14:56:15;34.83;;;20.03;;
4420;SDS011;11824;51.178;13.546;2022-11-15T14:58:44;33.57;;;19.70;;
4420;SDS011;11824;51.178;13.546;2022-11-15T15:01:13;34.87;;;18.20;;
4420;SDS011;11824;51.178;13.546;2022-11-15T15:03:44;31.67;;;16.60;;
4420;SDS011;11824;51.178;13.546;2022-11-15T15:06:13;31.80;;;18.70;;
4420;SDS011;11824;51.178;13.546;2022-11-15T15:08:45;30.87;;;19.23;;